Terminal Aerodrome Forecast
Issued by NWS Duluth, MN

Home | Current Version | Previous Version | Text Only | Print | Product List | Glossary On
Versions: 1 2 3 4 5 6 7 8 9 10 11 12 13 14 15 16 17 18 19 20 21 22 23 24 25 26 27 28
000
FTUS43 KDLH 281137
TAFINL
TAF
KINL 281137Z 2812/2912 20003KT P6SM BKN035
      TEMPO 2812/2814 OVC021
     FM281400 19004KT P6SM SCT050 OVC250
     FM281900 21009KT P6SM BKN120
     FM282200 21008KT P6SM VCSH SCT040 BKN100
     FM290000 23008KT P6SM -TSRA SCT020 OVC040CB PROB30 2900/2904
      3SM TSRA
     FM290500 VRB03KT P6SM SCT040=

USA.gov is the U.S. government's official web portal to all federal, state and local government web resources and services.